Time;durP1;ratioP1;P1;durP2;ratioP2;P2;SDS_P1;SDS_P2;PMS_P1;PMS_P2;Temp;Humidity;BMP_temperature;BMP_pressure;BME280_temperature;BME280_humidity;BME280_pressure;Samples;Min_cycle;Max_cycle;Signal;HPM_P1;HPM_P2
2021/08/27 00:01:28;;;;;;;15.18;13.38;;;20.00;99.90;;;;;;5053839;28;20048;-82
2021/08/27 00:03:55;;;;;;;18.08;14.77;;;19.90;99.90;;;;;;5054759;28;20067;-82
2021/08/27 00:06:21;;;;;;;16.27;13.90;;;19.90;99.90;;;;;;5053519;28;20029;-81
2021/08/27 00:08:47;;;;;;;18.30;14.20;;;19.90;99.90;;;;;;5054608;28;20112;-82
2021/08/27 00:11:14;;;;;;;16.85;14.13;;;19.90;99.90;;;;;;5054560;28;20545;-81
2021/08/27 00:13:40;;;;;;;20.55;15.38;;;19.90;99.90;;;;;;5053254;28;20071;-82
2021/08/27 00:16:06;;;;;;;19.23;15.73;;;19.90;99.90;;;;;;5053255;28;20025;-82
2021/08/27 00:18:32;;;;;;;17.70;15.27;;;19.80;99.90;;;;;;5053032;28;20051;-80
2021/08/27 00:20:58;;;;;;;20.77;17.42;;;19.80;99.90;;;;;;5053088;28;20026;-82
2021/08/27 00:23:24;;;;;;;21.45;17.77;;;19.80;99.90;;;;;;5054455;28;20044;-82
2021/08/27 00:25:49;;;;;;;23.83;17.52;;;19.80;99.90;;;;;;5053060;28;20029;-82
2021/08/27 00:28:15;;;;;;;18.63;15.43;;;19.70;99.90;;;;;;5053431;28;20024;-82
2021/08/27 00:30:41;;;;;;;15.95;13.15;;;19.60;99.90;;;;;;5054386;28;20024;-81
2021/08/27 00:33:07;;;;;;;18.45;14.00;;;19.60;99.90;;;;;;5054248;28;20029;-82
2021/08/27 00:35:32;;;;;;;19.38;13.63;;;19.60;99.90;;;;;;5052833;28;20025;-82
2021/08/27 00:37:58;;;;;;;20.33;14.30;;;19.60;99.90;;;;;;5052659;28;20064;-82
2021/08/27 00:40:24;;;;;;;14.63;12.82;;;19.60;99.90;;;;;;5053096;28;20079;-82
2021/08/27 00:42:49;;;;;;;14.63;12.73;;;19.50;99.90;;;;;;5053915;28;20025;-82
2021/08/27 00:45:15;;;;;;;14.93;12.30;;;19.50;99.90;;;;;;5052462;28;20045;-81
2021/08/27 00:47:41;;;;;;;12.35;11.15;;;19.50;99.90;;;;;;5053620;28;20040;-82
2021/08/27 00:50:07;;;;;;;12.95;11.00;;;19.50;99.90;;;;;;5054010;28;20435;-81
2021/08/27 00:52:36;;;;;;;12.95;11.57;;;19.50;99.90;;;;;;5053716;28;20029;-83
2021/08/27 00:55:02;;;;;;;12.30;11.00;;;19.50;99.90;;;;;;5036296;28;20127;-83
2021/08/27 00:57:30;;;;;;;13.23;11.82;;;19.40;99.90;;;;;;5054066;28;20097;-82
2021/08/27 00:59:58;;;;;;;12.57;10.95;;;19.40;99.90;;;;;;5052342;28;20467;-82
2021/08/27 01:02:24;;;;;;;12.50;10.75;;;19.40;99.90;;;;;;5053696;28;20029;-82
2021/08/27 01:04:51;;;;;;;12.20;10.88;;;19.30;99.90;;;;;;5052320;28;20499;-82
2021/08/27 01:07:27;;;;;;;15.88;11.93;;;19.40;99.90;;;;;;5052733;28;20502;-82
2021/08/27 01:10:14;;;;;;;12.60;11.30;;;19.40;99.90;;;;;;5053507;28;20021;-82
2021/08/27 01:12:58;;;;;;;14.95;11.45;;;19.40;99.90;;;;;;5052550;28;20364;-81
2021/08/27 01:15:35;;;;;;;11.45;10.25;;;19.40;99.90;;;;;;5053855;28;20042;-81
2021/08/27 01:18:22;;;;;;;10.63;9.45;;;19.40;99.90;;;;;;5053549;28;20017;-82
2021/08/27 01:21:24;;;;;;;11.88;10.63;;;19.50;99.90;;;;;;5053612;28;20059;-82
2021/08/27 01:23:59;;;;;;;11.55;10.35;;;19.50;99.90;;;;;;5054059;28;20037;-82
2021/08/27 01:26:29;;;;;;;12.70;10.10;;;19.50;99.90;;;;;;5052328;28;20029;-82
2021/08/27 01:28:56;;;;;;;13.40;11.45;;;19.50;99.90;;;;;;5035798;28;20029;-82
2021/08/27 01:31:52;;;;;;;11.57;10.30;;;19.50;99.90;;;;;;5053362;28;20078;-82
2021/08/27 01:34:36;;;;;;;12.38;11.02;;;19.50;99.90;;;;;;5051307;28;20037;-82
2021/08/27 01:37:06;;;;;;;11.27;9.80;;;19.50;99.90;;;;;;5053108;28;20084;-81
2021/08/27 01:39:37;;;;;;;11.73;10.52;;;19.50;99.90;;;;;;5053514;28;20108;-82
2021/08/27 01:42:05;;;;;;;13.45;10.52;;;19.50;99.90;;;;;;5052105;28;20476;-82
2021/08/27 01:44:31;;;;;;;12.63;11.32;;;19.50;99.90;;;;;;5053130;28;20028;-82
2021/08/27 01:47:00;;;;;;;14.65;12.40;;;19.40;99.90;;;;;;5053016;28;20467;-82
2021/08/27 01:49:30;;;;;;;39.15;35.35;;;19.40;99.90;;;;;;5051911;28;20434;-81
2021/08/27 01:52:08;;;;;;;53.75;48.20;;;19.50;99.90;;;;;;5051697;28;20029;-81
2021/08/27 01:54:37;;;;;;;33.70;30.13;;;19.50;99.90;;;;;;5054142;28;20044;-82
2021/08/27 01:57:04;;;;;;;30.83;27.63;;;19.50;99.90;;;;;;5068406;28;20028;-82
2021/08/27 01:59:37;;;;;;;37.85;33.95;;;19.50;99.90;;;;;;5054931;28;20071;-81
2021/08/27 02:02:05;;;;;;;49.38;44.17;;;19.40;99.90;;;;;;5072412;28;20025;-81
2021/08/27 02:04:33;;;;;;;28.88;25.90;;;19.40;99.90;;;;;;5057045;28;20028;-81
2021/08/27 02:07:01;;;;;;;29.48;26.48;;;19.40;99.90;;;;;;5057056;28;20033;-82
2021/08/27 02:09:27;;;;;;;33.72;30.33;;;19.40;99.90;;;;;;5055888;28;20036;-81
2021/08/27 02:11:53;;;;;;;29.08;26.08;;;19.30;99.90;;;;;;5055576;28;20028;-81
2021/08/27 02:14:19;;;;;;;69.15;62.35;;;19.30;99.90;;;;;;5072309;28;20029;-81
2021/08/27 02:16:45;;;;;;;55.65;49.83;;;19.30;99.90;;;;;;5057281;28;20033;-81
2021/08/27 02:19:12;;;;;;;42.40;37.60;;;19.30;99.90;;;;;;5055515;28;20023;-81
2021/08/27 02:21:51;;;;;;;21.80;19.48;;;19.30;99.90;;;;;;5056852;28;20017;-80
2021/08/27 02:24:34;;;;;;;17.17;12.27;;;19.30;99.90;;;;;;5056704;28;20021;-80
2021/08/27 02:27:02;;;;;;;16.33;12.02;;;19.30;99.90;;;;;;5056931;28;20025;-80
2021/08/27 02:29:30;;;;;;;14.27;11.25;;;19.20;99.90;;;;;;5072398;28;20021;-81
2021/08/27 02:32:01;;;;;;;12.20;10.38;;;19.30;99.90;;;;;;5056610;28;20534;-80
2021/08/27 02:34:30;;;;;;;12.75;11.07;;;19.30;99.90;;;;;;5072238;28;20123;-80
2021/08/27 02:36:58;;;;;;;11.95;10.70;;;19.40;99.90;;;;;;5056105;28;20049;-82
2021/08/27 02:39:27;;;;;;;12.65;11.35;;;19.40;99.90;;;;;;5056861;28;20024;-82
2021/08/27 02:41:54;;;;;;;14.75;10.98;;;19.30;99.90;;;;;;5056313;28;20527;-81
2021/08/27 02:44:19;;;;;;;13.32;10.20;;;19.20;99.90;;;;;;5055364;28;20032;-83
2021/08/27 02:46:47;;;;;;;11.13;9.88;;;19.20;99.90;;;;;;5071408;28;20433;-80
2021/08/27 02:49:13;;;;;;;14.07;12.07;;;19.20;99.90;;;;;;5054953;28;20029;-80
2021/08/27 02:51:48;;;;;;;12.27;10.63;;;19.30;99.90;;;;;;5056378;28;20530;-81
2021/08/27 02:54:17;;;;;;;13.63;11.45;;;19.20;99.90;;;;;;5055062;28;20029;-81
2021/08/27 02:56:45;;;;;;;14.77;12.57;;;19.20;99.90;;;;;;5055923;28;20078;-81
2021/08/27 02:59:14;;;;;;;14.80;12.68;;;19.10;99.90;;;;;;5056126;28;20025;-81
2021/08/27 03:01:51;;;;;;;16.88;13.63;;;19.20;99.90;;;;;;5054807;28;20560;-81
2021/08/27 03:04:24;;;;;;;17.65;14.63;;;19.20;99.90;;;;;;5055008;28;20025;-81
2021/08/27 03:06:54;;;;;;;16.27;12.85;;;19.20;99.90;;;;;;5056039;28;20082;-80
2021/08/27 03:09:21;;;;;;;;;;;19.20;99.90;;;;;;5056165;28;20017;-82
2021/08/27 03:12:02;;;;;;;22.77;17.13;;;19.10;99.90;;;;;;5055898;28;19966;-81
2021/08/27 03:14:41;;;;;;;23.27;16.85;;;19.20;99.90;;;;;;5055485;28;20115;-81
2021/08/27 03:17:15;;;;;;;24.05;17.58;;;19.10;99.90;;;;;;5055653;28;20029;-81
2021/08/27 03:19:51;;;;;;;23.63;17.40;;;19.10;99.90;;;;;;5038331;28;20025;-81
2021/08/27 03:22:24;;;;;;;24.95;17.15;;;19.10;99.90;;;;;;5055792;28;20021;-82
2021/08/27 03:24:56;;;;;;;24.63;16.20;;;19.10;99.90;;;;;;5054739;28;20040;-81
2021/08/27 03:27:30;;;;;;;26.25;17.77;;;19.10;99.90;;;;;;5055734;28;20017;-85
2021/08/27 03:30:02;;;;;;;32.85;19.52;;;19.10;99.90;;;;;;5053976;28;20025;-81
2021/08/27 03:32:30;;;;;;;26.10;16.10;;;19.10;99.90;;;;;;5055676;28;20388;-81
2021/08/27 03:34:57;;;;;;;26.35;17.17;;;19.10;99.90;;;;;;5055924;28;20024;-82
2021/08/27 03:37:24;;;;;;;27.48;17.55;;;19.10;99.90;;;;;;5055181;28;20045;-82
2021/08/27 03:39:51;;;;;;;25.88;17.10;;;19.10;99.90;;;;;;5055385;28;20025;-81
2021/08/27 03:42:20;;;;;;;26.20;16.85;;;19.20;99.90;;;;;;5055288;28;20039;-79
2021/08/27 03:44:48;;;;;;;29.40;18.75;;;19.20;99.90;;;;;;5055477;28;20104;-82
2021/08/27 03:47:15;;;;;;;26.20;17.58;;;19.10;99.90;;;;;;5055644;28;20036;-82
2021/08/27 03:49:42;;;;;;;27.13;18.05;;;19.20;99.90;;;;;;5054128;28;20025;-81
2021/08/27 03:52:10;;;;;;;29.80;18.70;;;19.10;99.90;;;;;;5054041;28;20079;-82
2021/08/27 03:54:35;;;;;;;29.60;18.88;;;19.10;99.90;;;;;;5053771;28;20025;-81
2021/08/27 03:57:02;;;;;;;27.58;18.38;;;19.20;99.90;;;;;;5054812;28;20392;-83
2021/08/27 03:59:28;;;;;;;31.67;19.77;;;19.10;99.90;;;;;;5055109;28;20028;-81
2021/08/27 04:01:55;;;;;;;27.60;18.50;;;19.10;99.90;;;;;;5054945;28;20042;-82
2021/08/27 04:04:22;;;;;;;28.60;19.05;;;19.10;99.90;;;;;;5054783;28;20032;-82
2021/08/27 04:07:01;;;;;;;27.45;17.90;;;19.10;99.90;;;;;;5053517;28;20031;-83
2021/08/27 04:09:28;;;;;;;31.13;19.00;;;19.10;99.90;;;;;;5054958;28;20104;-81
2021/08/27 04:11:58;;;;;;;25.33;17.95;;;19.10;99.90;;;;;;5054693;28;20072;-84
2021/08/27 04:14:24;;;;;;;24.40;16.92;;;19.10;99.90;;;;;;5053401;28;20024;-77
2021/08/27 04:16:50;;;;;;;24.67;17.55;;;19.10;99.90;;;;;;5054647;28;20044;-80
2021/08/27 04:19:16;;;;;;;26.50;19.13;;;19.10;99.90;;;;;;5053491;28;20049;-80
2021/08/27 04:21:43;;;;;;;21.33;15.48;;;19.10;99.90;;;;;;5052909;28;20035;-78
2021/08/27 04:24:10;;;;;;;25.10;17.38;;;19.10;99.90;;;;;;5054483;28;20114;-79
2021/08/27 04:26:36;;;;;;;26.25;17.85;;;19.10;99.90;;;;;;5054268;28;20037;-77
2021/08/27 04:29:02;;;;;;;26.58;18.90;;;19.20;99.90;;;;;;5053511;28;20410;-76
2021/08/27 04:31:28;;;;;;;25.38;18.15;;;19.20;99.90;;;;;;5053383;28;20112;-80
2021/08/27 04:33:55;;;;;;;25.45;18.40;;;19.30;99.90;;;;;;5052892;28;20107;-78
2021/08/27 04:36:21;;;;;;;23.38;17.38;;;19.40;99.90;;;;;;5053057;28;20047;-79
2021/08/27 04:38:48;;;;;;;23.23;18.50;;;19.50;99.90;;;;;;5054396;28;20051;-81
2021/08/27 04:41:14;;;;;;;26.88;19.58;;;19.60;99.90;;;;;;5053366;28;20444;-80
2021/08/27 04:44:30;;;;;;;25.40;19.27;;;19.60;99.90;;;;;;5071165;28;20368;-80
2021/08/27 04:46:56;;;;;;;25.05;18.63;;;19.60;99.90;;;;;;5070910;28;20529;-80
2021/08/27 04:49:22;;;;;;;25.55;18.90;;;19.50;99.90;;;;;;5070837;28;20025;-78
2021/08/27 04:51:47;;;;;;;25.77;18.77;;;19.50;99.90;;;;;;5070988;28;20083;-82
2021/08/27 04:54:13;;;;;;;29.17;20.50;;;19.50;99.90;;;;;;5070960;28;20025;-80
2021/08/27 04:56:39;;;;;;;27.30;19.92;;;19.50;99.90;;;;;;5069416;28;20730;-78
2021/08/27 04:59:05;;;;;;;23.65;18.50;;;19.50;99.90;;;;;;5070865;28;20108;-78
2021/08/27 05:01:30;;;;;;;27.75;20.70;;;19.50;99.90;;;;;;5071305;28;20150;-80
2021/08/27 05:03:56;;;;;;;24.42;17.80;;;19.60;99.90;;;;;;5071196;28;20043;-78
2021/08/27 05:06:22;;;;;;;29.25;19.60;;;19.50;99.90;;;;;;5070607;28;20031;-81
2021/08/27 05:08:48;;;;;;;29.15;21.17;;;19.50;99.90;;;;;;5070835;28;20025;-80
2021/08/27 05:11:13;;;;;;;25.95;18.02;;;19.60;99.90;;;;;;5070323;28;20032;-78
2021/08/27 05:13:39;;;;;;;30.00;21.30;;;19.50;99.90;;;;;;5070959;28;20021;-80
2021/08/27 05:16:05;;;;;;;29.48;20.77;;;19.50;99.90;;;;;;5070509;28;20051;-77
2021/08/27 05:18:31;;;;;;;28.33;20.30;;;19.50;99.90;;;;;;5070209;28;20403;-78
2021/08/27 05:20:57;;;;;;;30.85;20.52;;;19.50;99.90;;;;;;5070547;28;20031;-78
2021/08/27 05:23:23;;;;;;;31.20;21.23;;;19.50;99.90;;;;;;5070485;28;20029;-80
2021/08/27 05:25:49;;;;;;;36.17;23.52;;;19.50;99.90;;;;;;5070241;28;20021;-80
2021/08/27 05:28:15;;;;;;;28.33;19.40;;;19.50;99.90;;;;;;5070165;28;20032;-81
2021/08/27 05:30:41;;;;;;;28.83;21.77;;;19.50;99.90;;;;;;5070442;28;20367;-79
2021/08/27 05:33:07;;;;;;;29.55;19.67;;;19.50;99.90;;;;;;5070061;28;20029;-79
2021/08/27 05:35:33;;;;;;;29.02;22.50;;;19.50;99.90;;;;;;5070132;28;20039;-78
2021/08/27 05:37:59;;;;;;;29.70;21.33;;;19.60;99.90;;;;;;5070249;28;20025;-78
2021/08/27 05:40:25;;;;;;;35.28;22.40;;;19.60;99.90;;;;;;5069822;28;20023;-78
2021/08/27 05:42:51;;;;;;;40.65;25.40;;;19.60;99.90;;;;;;5069516;28;20099;-79
2021/08/27 05:45:18;;;;;;;44.55;26.95;;;19.60;99.90;;;;;;5070040;28;20025;-79
2021/08/27 05:47:44;;;;;;;55.05;37.85;;;19.50;99.90;;;;;;5069644;28;20021;-80
2021/08/27 05:50:13;;;;;;;36.78;25.92;;;19.50;99.90;;;;;;5069980;28;20096;-82
2021/08/27 05:52:40;;;;;;;36.80;24.23;;;19.50;99.90;;;;;;5070031;28;20052;-85
2021/08/27 05:55:06;;;;;;;34.03;23.30;;;19.60;99.90;;;;;;5059317;28;20036;-82
2021/08/27 05:57:32;;;;;;;32.70;22.05;;;19.70;99.90;;;;;;5056411;28;20025;-80
2021/08/27 05:59:58;;;;;;;32.72;21.58;;;19.70;99.90;;;;;;5056357;28;20072;-82
2021/08/27 06:02:23;;;;;;;30.23;21.40;;;19.80;99.90;;;;;;5056174;28;20036;-81
2021/08/27 06:04:49;;;;;;;31.08;21.10;;;19.90;99.90;;;;;;5056234;28;20082;-82
2021/08/27 06:07:15;;;;;;;32.25;23.42;;;19.90;99.90;;;;;;5056479;28;20111;-80
2021/08/27 06:09:42;;;;;;;35.83;23.05;;;20.00;99.90;;;;;;5056151;28;20025;-82
2021/08/27 06:12:08;;;;;;;33.60;22.00;;;20.00;99.90;;;;;;5056035;28;20059;-84
2021/08/27 06:14:34;;;;;;;31.27;20.63;;;20.00;99.90;;;;;;5056018;28;20498;-83
2021/08/27 06:17:00;;;;;;;33.95;23.45;;;20.00;99.90;;;;;;5055999;28;20025;-80
2021/08/27 06:19:25;;;;;;;33.20;23.50;;;20.10;99.90;;;;;;5056075;28;20028;-78
2021/08/27 06:21:51;;;;;;;35.40;24.58;;;20.10;99.90;;;;;;5056289;28;20017;-78
2021/08/27 06:24:17;;;;;;;34.92;23.80;;;20.20;99.90;;;;;;5056095;28;20044;-81
2021/08/27 06:26:43;;;;;;;29.45;21.30;;;20.20;99.90;;;;;;5056191;28;20036;-76
2021/08/27 06:29:08;;;;;;;35.90;23.45;;;20.20;99.90;;;;;;5056665;28;20464;-81
2021/08/27 06:31:34;;;;;;;37.20;24.00;;;20.10;99.90;;;;;;5055704;28;20025;-82
2021/08/27 06:34:00;;;;;;;36.38;22.90;;;20.10;99.90;;;;;;5054495;28;20025;-83
2021/08/27 06:36:26;;;;;;;35.53;23.58;;;20.10;99.90;;;;;;5055665;28;20104;-83
2021/08/27 06:38:51;;;;;;;33.10;23.08;;;20.10;99.90;;;;;;5055634;28;20026;-83
2021/08/27 06:41:17;;;;;;;36.15;24.38;;;20.10;99.90;;;;;;5055767;28;20029;-83
2021/08/27 06:43:45;;;;;;;36.95;24.20;;;20.00;99.90;;;;;;5055313;28;20049;-82
2021/08/27 06:46:14;;;;;;;36.15;23.48;;;20.00;99.90;;;;;;5055693;28;20510;-82
2021/08/27 06:48:41;;;;;;;41.92;26.60;;;20.00;99.90;;;;;;5055301;28;20021;-83
2021/08/27 06:51:06;;;;;;;48.83;33.22;;;20.00;99.90;;;;;;5055575;28;20108;-84
2021/08/27 06:53:32;;;;;;;44.00;29.10;;;20.00;99.90;;;;;;5055207;28;20103;-82
2021/08/27 06:55:58;;;;;;;40.95;28.05;;;20.10;99.90;;;;;;5055142;28;20154;-84
2021/08/27 06:58:24;;;;;;;39.65;26.08;;;20.00;99.90;;;;;;5055311;28;20309;-85
2021/08/27 07:01:02;;;;;;;35.20;23.88;;;20.00;99.90;;;;;;5055223;28;20036;-84
2021/08/27 07:03:28;;;;;;;45.33;28.45;;;20.00;99.90;;;;;;5054981;28;20029;-84
2021/08/27 07:05:54;;;;;;;46.75;30.58;;;20.10;99.90;;;;;;5053162;28;20021;-84
2021/08/27 07:08:20;;;;;;;41.95;27.63;;;20.10;99.90;;;;;;5053596;28;20471;-84
2021/08/27 07:10:46;;;;;;;39.40;26.20;;;20.10;99.90;;;;;;5053813;28;20024;-83
2021/08/27 07:13:13;;;;;;;40.97;25.85;;;20.20;99.90;;;;;;5055363;28;20035;-86
2021/08/27 07:15:39;;;;;;;50.30;31.90;;;20.20;99.90;;;;;;5055036;28;20045;-85
2021/08/27 07:18:05;;;;;;;45.90;31.38;;;20.10;99.90;;;;;;5055279;28;20379;-82
2021/08/27 07:20:31;;;;;;;49.05;31.73;;;20.10;99.90;;;;;;5054824;28;20021;-85
2021/08/27 07:22:57;;;;;;;45.03;28.77;;;20.10;99.90;;;;;;5054923;28;20456;-85
2021/08/27 07:25:24;;;;;;;41.95;29.15;;;20.00;99.90;;;;;;5054687;28;20112;-77
2021/08/27 07:27:49;;;;;;;48.00;30.45;;;20.10;99.90;;;;;;5054879;28;20021;-82
2021/08/27 07:30:16;;;;;;;64.28;43.83;;;20.10;99.90;;;;;;5055177;28;20379;-89
2021/08/27 07:32:42;;;;;;;59.50;36.88;;;20.00;99.90;;;;;;5054799;28;20097;-81
2021/08/27 07:35:08;;;;;;;48.80;33.80;;;20.10;99.90;;;;;;5054470;28;20443;-81
2021/08/27 07:37:37;;;;;;;45.58;30.27;;;20.00;99.90;;;;;;5054413;28;20021;-83
2021/08/27 07:40:05;;;;;;;45.25;29.48;;;20.10;99.90;;;;;;5054525;28;20029;-83
2021/08/27 07:42:31;;;;;;;48.40;31.63;;;20.10;99.90;;;;;;5054146;28;20045;-83
2021/08/27 07:44:57;;;;;;;40.35;27.52;;;20.20;99.90;;;;;;5054312;28;20017;-85
2021/08/27 07:47:22;;;;;;;44.92;29.67;;;20.40;99.90;;;;;;5054557;28;20376;-81
2021/08/27 07:49:48;;;;;;;44.92;29.20;;;20.50;99.90;;;;;;5054186;28;20379;-80
2021/08/27 07:52:14;;;;;;;38.55;27.20;;;20.50;99.90;;;;;;5054391;28;20029;-83
2021/08/27 07:54:39;;;;;;;47.95;30.20;;;20.60;99.90;;;;;;5053999;28;20021;-82
2021/08/27 07:57:05;;;;;;;39.40;26.65;;;20.60;99.90;;;;;;5059117;28;20017;-81
2021/08/27 07:59:31;;;;;;;39.63;27.38;;;20.60;99.90;;;;;;5074292;28;20017;-81
2021/08/27 08:01:57;;;;;;;39.25;27.98;;;20.60;99.90;;;;;;5074114;28;20078;-81
2021/08/27 08:04:22;;;;;;;42.58;27.73;;;20.70;99.90;;;;;;5072609;28;20039;-80
2021/08/27 08:06:48;;;;;;;40.25;25.75;;;20.60;99.90;;;;;;5074015;28;20021;-81
2021/08/27 08:09:14;;;;;;;40.78;29.63;;;20.70;99.90;;;;;;5073829;28;20409;-81
2021/08/27 08:11:39;;;;;;;36.65;26.02;;;20.80;99.90;;;;;;5074210;28;20024;-81
2021/08/27 08:14:05;;;;;;;36.65;26.42;;;20.90;99.90;;;;;;5072498;28;20021;-82
2021/08/27 08:16:31;;;;;;;36.88;25.42;;;21.00;99.90;;;;;;5073851;28;20021;-82
2021/08/27 08:18:57;;;;;;;32.30;23.80;;;21.20;99.90;;;;;;5073528;28;20050;-81
2021/08/27 08:21:23;;;;;;;29.50;22.42;;;21.20;99.90;;;;;;5073745;28;20033;-81
2021/08/27 08:23:54;;;;;;;32.88;23.25;;;21.20;99.90;;;;;;5073963;28;20030;-81
2021/08/27 08:26:21;;;;;;;34.38;24.20;;;21.20;99.90;;;;;;5073690;28;20021;-82
2021/08/27 08:28:51;;;;;;;32.90;23.33;;;21.20;99.90;;;;;;5073650;28;20066;-82
2021/08/27 08:31:18;;;;;;;30.90;23.00;;;21.30;99.90;;;;;;5073947;28;20028;-82
2021/08/27 08:33:49;;;;;;;36.85;24.80;;;21.30;99.90;;;;;;5073588;28;20025;-83
2021/08/27 08:36:15;;;;;;;30.92;23.42;;;21.40;99.90;;;;;;5073564;28;20090;-81
2021/08/27 08:38:41;;;;;;;30.67;23.17;;;21.40;99.90;;;;;;5072254;28;20028;-82
2021/08/27 08:41:07;;;;;;;31.92;24.92;;;21.40;99.90;;;;;;5073595;28;20082;-83
2021/08/27 08:43:33;;;;;;;30.33;23.40;;;21.40;99.90;;;;;;5073308;28;20049;-82
2021/08/27 08:45:59;;;;;;;29.25;22.33;;;21.40;99.90;;;;;;5073693;28;20100;-83
2021/08/27 08:48:26;;;;;;;29.35;23.55;;;21.40;99.90;;;;;;5073477;28;20052;-84
2021/08/27 08:50:53;;;;;;;26.08;21.98;;;21.50;99.90;;;;;;5073383;28;20048;-82
2021/08/27 08:53:23;;;;;;;27.23;21.67;;;21.40;99.90;;;;;;5072215;28;20447;-82
2021/08/27 08:55:50;;;;;;;27.80;22.30;;;21.50;99.90;;;;;;5073522;28;20020;-82
2021/08/27 08:58:17;;;;;;;28.23;22.52;;;21.40;99.90;;;;;;5073331;28;20025;-83
2021/08/27 09:00:43;;;;;;;23.98;20.48;;;21.40;99.90;;;;;;5073422;28;20028;-83
2021/08/27 09:03:08;;;;;;;27.92;21.48;;;21.40;99.90;;;;;;5073204;28;20028;-83
2021/08/27 09:06:14;;;;;;;25.40;21.35;;;21.70;99.90;;;;;;5053547;28;20025;-83
2021/08/27 09:08:46;;;;;;;24.73;21.17;;;22.00;99.90;;;;;;5053275;28;20170;-84
2021/08/27 09:11:31;;;;;;;24.55;21.02;;;22.20;99.90;;;;;;5053648;28;20021;-84
2021/08/27 09:13:59;;;;;;;22.88;18.48;;;22.20;99.90;;;;;;5053234;28;20021;-83
2021/08/27 09:16:27;;;;;;;24.05;19.25;;;22.20;99.90;;;;;;5053586;28;20491;-85
2021/08/27 09:18:54;;;;;;;21.17;18.63;;;22.20;99.90;;;;;;5053509;28;20166;-85
2021/08/27 09:21:46;;;;;;;19.88;17.13;;;22.40;99.90;;;;;;5053229;28;20029;-85
2021/08/27 09:24:19;;;;;;;19.70;16.65;;;22.60;99.90;;;;;;5050633;28;20033;-84
2021/08/27 09:26:48;;;;;;;22.90;18.65;;;23.00;99.40;;;;;;5051956;28;20111;-86
2021/08/27 09:29:43;;;;;;;22.38;17.67;;;23.10;98.90;;;;;;5053524;28;20074;-84
2021/08/27 09:32:29;;;;;;;22.58;19.25;;;23.30;99.00;;;;;;5056989;28;20020;-84
2021/08/27 09:35:14;;;;;;;20.63;18.42;;;23.50;98.00;;;;;;5055934;28;20455;-85
2021/08/27 09:37:44;;;;;;;20.73;18.48;;;23.60;97.80;;;;;;5057224;28;20019;-82
2021/08/27 09:40:15;;;;;;;21.27;18.63;;;23.70;96.50;;;;;;5056894;28;20045;-85
2021/08/27 09:42:49;;;;;;;21.58;19.23;;;23.60;96.70;;;;;;5056818;28;20546;-84
2021/08/27 09:45:15;;;;;;;20.58;17.40;;;23.60;97.20;;;;;;5057158;28;20108;-86
2021/08/27 09:48:09;;;;;;;19.90;17.80;;;23.70;97.40;;;;;;5056762;28;20092;-86
2021/08/27 09:50:37;;;;;;;19.20;16.48;;;23.90;96.00;;;;;;5055596;28;20033;-87
2021/08/27 09:53:05;;;;;;;18.85;16.38;;;23.90;96.80;;;;;;5056755;28;20475;-87
2021/08/27 09:55:32;;;;;;;19.42;16.90;;;24.00;96.10;;;;;;5056636;28;20101;-87
2021/08/27 09:58:10;;;;;;;18.63;16.58;;;23.90;96.20;;;;;;5056413;28;20091;-86
2021/08/27 10:00:41;;;;;;;20.92;18.13;;;24.00;95.70;;;;;;5056440;28;20033;-86
2021/08/27 10:03:24;;;;;;;16.83;15.00;;;23.90;95.80;;;;;;5055099;28;20029;-83
2021/08/27 10:05:53;;;;;;;19.70;17.65;;;23.90;96.20;;;;;;5056134;28;20017;-85
2021/08/27 10:08:20;;;;;;;17.88;15.98;;;23.90;95.70;;;;;;5057027;28;20055;-85
2021/08/27 10:10:49;;;;;;;17.55;15.75;;;23.80;96.40;;;;;;5055176;28;20059;-86
2021/08/27 10:13:14;;;;;;;19.67;17.57;;;23.70;96.80;;;;;;5056182;28;20029;-84
2021/08/27 10:15:42;;;;;;;21.98;17.70;;;23.90;96.00;;;;;;5054850;28;20033;-85
2021/08/27 10:21:31;;;;;;;17.85;15.95;;;24.10;95.00;;;;;;5056456;28;20028;-86
2021/08/27 10:23:57;;;;;;;18.42;16.52;;;24.20;95.80;;;;;;5055984;28;20021;-88
2021/08/27 10:26:26;;;;;;;19.67;17.33;;;24.40;95.80;;;;;;5055105;28;20025;-88
2021/08/27 10:28:52;;;;;;;16.15;14.48;;;24.50;94.80;;;;;;5056372;28;20418;-84
2021/08/27 10:31:38;;;;;;;18.38;16.25;;;24.60;95.00;;;;;;5055973;28;20021;-87
2021/08/27 10:34:04;;;;;;;16.98;15.20;;;24.60;93.80;;;;;;5054779;28;20025;-85
2021/08/27 10:36:29;;;;;;;17.15;15.30;;;24.50;94.10;;;;;;5055817;28;20032;-80
2021/08/27 10:38:59;;;;;;;16.55;14.95;;;24.50;94.70;;;;;;5055781;28;20033;-86
2021/08/27 10:41:32;;;;;;;22.50;19.45;;;24.50;95.10;;;;;;5038131;28;20106;-88
2021/08/27 10:44:05;;;;;;;22.55;20.15;;;24.60;93.90;;;;;;5055782;28;20049;-86
2021/08/27 10:46:46;;;;;;;23.92;21.40;;;24.70;93.00;;;;;;5055810;28;20428;-85
2021/08/27 10:49:14;;;;;;;19.00;17.05;;;24.90;91.90;;;;;;5055069;28;20025;-86
2021/08/27 10:51:45;;;;;;;23.13;19.85;;;25.00;91.10;;;;;;5055746;28;20476;-83
2021/08/27 10:54:13;;;;;;;15.50;13.77;;;25.20;90.00;;;;;;5055857;28;20029;-83
2021/08/27 10:56:50;;;;;;;14.73;13.23;;;25.40;87.90;;;;;;5055834;28;20036;-89
2021/08/27 10:59:17;;;;;;;13.85;12.45;;;25.50;86.80;;;;;;5055815;28;20060;-87
2021/08/27 11:01:48;;;;;;;20.02;17.67;;;25.50;88.20;;;;;;5055753;28;20387;-89
2021/08/27 11:04:22;;;;;;;18.58;15.93;;;25.60;87.70;;;;;;5055694;28;20379;-85
2021/08/27 11:06:49;;;;;;;19.75;17.73;;;25.60;86.00;;;;;;5055508;28;20435;-82
2021/08/27 11:09:18;;;;;;;17.38;15.68;;;25.50;86.30;;;;;;5055512;28;20108;-88
2021/08/27 11:11:44;;;;;;;15.35;13.93;;;25.40;88.40;;;;;;5054049;28;20052;-86
2021/08/27 11:14:21;;;;;;;14.35;12.73;;;25.40;90.10;;;;;;5055251;28;20023;-89
2021/08/27 11:16:58;;;;;;;14.23;12.82;;;25.40;90.10;;;;;;5055184;28;20032;-86
2021/08/27 11:19:32;;;;;;;13.15;11.98;;;25.50;87.60;;;;;;5054793;28;20100;-80
2021/08/27 11:22:20;;;;;;;11.43;10.43;;;25.60;85.80;;;;;;5053495;28;20029;-83
2021/08/27 11:25:05;;;;;;;13.70;12.43;;;25.80;86.20;;;;;;5050980;28;20041;-81
2021/08/27 11:27:35;;;;;;;13.73;12.43;;;25.90;82.30;;;;;;5054641;28;20031;-83
2021/08/27 11:30:28;;;;;;;11.68;10.68;;;26.00;81.90;;;;;;5058392;28;20048;-83
2021/08/27 11:32:55;;;;;;;10.88;9.95;;;26.00;79.80;;;;;;5035011;28;20029;-84
2021/08/27 11:35:22;;;;;;;9.98;9.07;;;26.00;79.00;;;;;;5033339;28;20021;-83
2021/08/27 11:38:05;;;;;;;10.45;9.55;;;25.90;79.30;;;;;;5034521;28;20040;-82
2021/08/27 11:40:32;;;;;;;10.45;9.45;;;25.90;80.50;;;;;;5053032;28;20568;-82
2021/08/27 11:42:58;;;;;;;11.35;10.30;;;26.00;81.50;;;;;;5054136;28;20053;-82
2021/08/27 11:45:26;;;;;;;10.68;9.70;;;26.10;80.60;;;;;;5052931;28;20431;-81
2021/08/27 11:47:53;;;;;;;10.48;9.48;;;26.30;81.90;;;;;;5054081;28;20028;-81
2021/08/27 11:50:36;;;;;;;10.95;9.95;;;26.50;81.50;;;;;;5054598;28;20413;-81
2021/08/27 11:53:03;;;;;;;11.07;10.07;;;26.60;81.50;;;;;;5053621;28;20120;-80
2021/08/27 11:55:30;;;;;;;13.27;12.07;;;26.80;80.60;;;;;;5054200;28;20028;-82
2021/08/27 11:57:58;;;;;;;14.93;13.43;;;27.10;79.70;;;;;;5052849;28;20475;-82
2021/08/27 12:00:30;;;;;;;13.43;12.18;;;27.20;78.70;;;;;;5052741;28;20033;-81
2021/08/27 12:02:57;;;;;;;13.30;12.10;;;27.30;79.20;;;;;;5053979;28;20378;-81
2021/08/27 12:05:24;;;;;;;12.65;11.35;;;27.50;78.50;;;;;;5054001;28;20067;-83
2021/08/27 12:07:59;;;;;;;13.77;12.38;;;27.50;78.10;;;;;;5052493;28;20062;-82
2021/08/27 12:10:27;;;;;;;12.98;11.77;;;27.60;77.20;;;;;;5052540;28;20104;-84
2021/08/27 12:12:54;;;;;;;12.70;11.50;;;27.60;79.20;;;;;;5053905;28;20020;-82
2021/08/27 12:15:23;;;;;;;13.60;12.10;;;27.80;80.10;;;;;;5053672;28;20024;-82
2021/08/27 17:43:39;;;;;;;31.13;21.20;;;18.60;99.90;;;;;;5110862;27;20411;-75
2021/08/27 17:46:05;;;;;;;35.80;24.35;;;18.10;99.90;;;;;;5111225;28;20024;-75
2021/08/27 17:48:31;;;;;;;38.47;25.55;;;18.10;99.90;;;;;;5111226;28;20024;-75
2021/08/27 17:50:57;;;;;;;41.83;27.55;;;18.10;99.90;;;;;;5110506;28;20077;-75
2021/08/27 17:53:22;;;;;;;38.85;26.77;;;18.10;99.90;;;;;;5110968;28;20486;-76
2021/08/27 17:55:48;;;;;;;40.25;26.00;;;18.20;99.90;;;;;;5111062;28;20032;-75
2021/08/27 17:58:14;;;;;;;41.47;29.23;;;18.20;99.90;;;;;;5110620;28;20351;-75
2021/08/27 18:00:40;;;;;;;42.55;28.55;;;18.30;99.90;;;;;;5110873;28;20024;-75
2021/08/27 18:03:05;;;;;;;42.72;28.23;;;18.30;99.90;;;;;;5110831;28;20140;-75
2021/08/27 18:05:31;;;;;;;42.42;27.45;;;18.40;99.90;;;;;;5125732;28;20051;-75
2021/08/27 18:07:57;;;;;;;36.08;26.70;;;18.40;99.90;;;;;;5131550;28;20027;-75